Time;durP1;ratioP1;P1;durP2;ratioP2;P2;SDS_P1;SDS_P2;PMS_P1;PMS_P2;Temp;Humidity;BMP_temperature;BMP_pressure;BME280_temperature;BME280_humidity;BME280_pressure;Samples;Min_cycle;Max_cycle;Signal;HPM_P1;HPM_P2
2022/03/30 00:01:00;;;;;;;7.20;2.15;;;;;;;4.13;46.53;100855.28;5044383;28;20106;-79
2022/03/30 00:03:27;;;;;;;10.73;1.80;;;;;;;4.17;47.11;100857.81;5040813;28;20033;-78
2022/03/30 00:05:53;;;;;;;6.88;2.20;;;;;;;4.12;46.12;100853.56;5028487;28;20024;-78
2022/03/30 00:08:19;;;;;;;7.63;1.75;;;;;;;4.04;46.85;100861.44;5023638;28;20079;-78
2022/03/30 00:10:44;;;;;;;7.75;2.90;;;;;;;4.01;46.78;100856.31;5005492;28;20043;-79
2022/03/30 00:13:10;;;;;;;7.35;1.70;;;;;;;4.08;47.36;100851.94;5024050;28;20056;-78
2022/03/30 00:15:35;;;;;;;2.33;1.05;;;;;;;4.19;47.40;100850.06;5043195;28;20033;-79
2022/03/30 00:18:01;;;;;;;8.68;1.60;;;;;;;4.19;46.82;100842.28;5024109;28;20064;-78
2022/03/30 00:20:27;;;;;;;6.70;2.30;;;;;;;4.27;46.88;100850.78;5024731;28;20100;-80
2022/03/30 00:22:52;;;;;;;11.30;3.13;;;;;;;4.28;46.80;100843.91;5026040;28;20052;-79
2022/03/30 00:25:20;;;;;;;6.65;2.13;;;;;;;4.20;47.06;100841.41;5040997;28;20049;-78
2022/03/30 00:27:46;;;;;;;7.97;2.03;;;;;;;4.07;47.41;100842.44;5044713;28;20418;-78
2022/03/30 00:30:15;;;;;;;5.00;1.88;;;;;;;4.01;47.47;100841.66;5041245;28;20103;-79
2022/03/30 00:32:41;;;;;;;5.60;2.00;;;;;;;4.09;47.85;100848.44;5023034;28;20507;-78
2022/03/30 00:35:08;;;;;;;7.07;2.08;;;;;;;4.19;47.61;100844.88;5040150;28;20037;-82
2022/03/30 00:37:37;;;;;;;5.57;1.63;;;;;;;4.17;47.88;100847.47;5023468;28;20064;-79
2022/03/30 00:40:05;;;;;;;6.22;1.55;;;;;;;4.06;47.82;100848.50;5008376;28;20072;-79
2022/03/30 00:42:30;;;;;;;7.65;2.17;;;;;;;4.12;48.38;100848.41;5046664;28;20040;-78
2022/03/30 00:44:56;;;;;;;11.38;2.47;;;;;;;4.14;48.52;100846.66;5039752;28;20051;-77
2022/03/30 00:47:24;;;;;;;9.75;2.17;;;;;;;4.09;48.56;100838.09;5040425;28;20041;-77
2022/03/30 00:49:50;;;;;;;6.00;2.00;;;;;;;4.00;49.08;100827.00;5038421;28;20033;-80
2022/03/30 00:52:16;;;;;;;12.07;1.90;;;;;;;3.97;49.48;100834.81;5040794;28;20041;-78
2022/03/30 00:54:45;;;;;;;11.23;2.67;;;;;;;4.00;49.29;100834.75;5030230;28;20718;-77
2022/03/30 00:57:12;;;;;;;4.35;1.73;;;;;;;4.17;49.24;100828.50;5043789;28;20051;-80
2022/03/30 00:59:39;;;;;;;8.48;2.33;;;;;;;4.16;49.05;100830.25;5020404;28;20337;-79
2022/03/30 01:02:05;;;;;;;11.88;3.28;;;;;;;4.18;49.54;100827.63;5024665;28;20025;-80
2022/03/30 01:04:34;;;;;;;11.82;1.65;;;;;;;4.17;49.04;100823.34;5023520;28;20434;-77
2022/03/30 01:07:00;;;;;;;5.25;1.95;;;;;;;4.21;49.20;100832.78;5022427;28;20060;-79
2022/03/30 01:09:26;;;;;;;6.05;1.75;;;;;;;4.21;49.44;100828.44;5046211;28;20116;-80
2022/03/30 01:11:56;;;;;;;7.65;1.92;;;;;;;4.07;49.70;100822.59;5010812;28;20044;-80
2022/03/30 01:14:25;;;;;;;7.45;1.60;;;;;;;4.01;49.79;100825.28;5023632;28;20036;-78
2022/03/30 01:16:51;;;;;;;11.52;2.03;;;;;;;3.97;50.33;100816.69;5036900;28;20037;-79
2022/03/30 01:19:17;;;;;;;8.80;2.25;;;;;;;4.04;50.23;100819.22;5009819;28;20513;-80
2022/03/30 01:21:46;;;;;;;6.93;1.75;;;;;;;4.02;49.83;100814.06;5025451;28;20482;-79
2022/03/30 01:24:12;;;;;;;12.77;1.85;;;;;;;4.04;50.20;100812.31;5046074;28;20641;-78
2022/03/30 01:26:40;;;;;;;6.20;1.83;;;;;;;4.08;50.45;100805.38;5024742;28;20028;-78
2022/03/30 01:32:24;;;;;;;6.93;2.28;;;;;;;4.05;50.82;100802.81;5040763;28;20041;-78
2022/03/30 01:34:38;;;;;;;9.10;1.98;;;;;;;4.14;50.22;100797.50;5041844;28;20036;-79
2022/03/30 01:37:06;;;;;;;13.95;2.72;;;;;;;4.08;50.61;100797.63;5040327;28;20301;-78
2022/03/30 01:39:33;;;;;;;31.15;2.92;;;;;;;4.13;50.56;100803.56;5022658;28;20053;-78
2022/03/30 01:41:58;;;;;;;9.55;2.13;;;;;;;4.07;50.46;100796.72;5022327;28;20044;-80
2022/03/30 01:44:24;;;;;;;8.30;3.17;;;;;;;4.11;50.63;100801.00;5044422;28;20033;-79
2022/03/30 01:46:51;;;;;;;8.90;2.25;;;;;;;4.10;50.79;100794.13;5028376;28;20029;-80
2022/03/30 01:49:21;;;;;;;10.20;3.65;;;;;;;4.10;50.68;100793.28;5031792;28;20032;-81
2022/03/30 01:51:57;;;;;;;10.18;2.20;;;;;;;4.10;50.75;100786.38;5044800;28;20095;-79
2022/03/30 01:54:25;;;;;;;11.93;2.97;;;;;;;4.11;50.95;100782.88;5029002;28;20136;-81
2022/03/30 01:56:53;;;;;;;13.05;2.95;;;;;;;3.97;50.99;100780.50;5025266;28;20427;-80
2022/03/30 01:59:19;;;;;;;9.13;2.72;;;;;;;4.04;51.15;100777.84;5043990;28;20442;-77
2022/03/30 02:01:45;;;;;;;8.38;2.17;;;;;;;4.05;51.32;100779.53;5027609;28;20033;-79
2022/03/30 02:04:11;;;;;;;16.35;2.20;;;;;;;4.05;51.10;100780.41;5031048;28;20068;-80
2022/03/30 02:06:38;;;;;;;13.45;2.88;;;;;;;3.93;51.07;100784.00;5010854;28;20033;-80
2022/03/30 02:09:05;;;;;;;10.30;2.38;;;;;;;3.88;51.25;100783.22;5028769;28;20048;-81
2022/03/30 02:11:31;;;;;;;10.15;2.20;;;;;;;3.86;51.61;100774.63;5048143;28;20080;-79
2022/03/30 02:13:57;;;;;;;6.95;1.50;;;;;;;3.89;51.97;100778.91;5028172;28;20601;-78
2022/03/30 02:16:24;;;;;;;9.95;2.53;;;;;;;3.84;51.98;100772.94;5046245;28;20094;-80
2022/03/30 02:18:50;;;;;;;14.95;3.53;;;;;;;3.80;52.08;100770.38;5044090;28;20053;-78
2022/03/30 02:21:16;;;;;;;8.27;3.80;;;;;;;3.84;52.13;100763.44;5046770;28;20056;-78
2022/03/30 02:23:45;;;;;;;18.92;3.83;;;;;;;3.93;52.25;100758.13;5028188;28;20071;-79
2022/03/30 02:26:12;;;;;;;13.60;2.88;;;;;;;3.88;51.80;100756.50;5023420;28;20078;-80
2022/03/30 02:28:38;;;;;;;13.60;3.00;;;;;;;3.70;52.06;100755.03;5043442;28;20490;-80
2022/03/30 02:31:03;;;;;;;9.00;2.60;;;;;;;3.70;52.18;100757.63;5028988;28;20040;-79
2022/03/30 02:33:29;;;;;;;9.75;2.65;;;;;;;3.76;52.23;100752.34;5027415;28;20768;-81
2022/03/30 02:35:56;;;;;;;7.30;2.17;;;;;;;3.70;52.50;100755.88;5030500;28;20036;-81
2022/03/30 02:38:21;;;;;;;18.42;2.83;;;;;;;3.53;52.68;100761.25;5033770;28;20041;-80
2022/03/30 02:40:47;;;;;;;6.95;2.55;;;;;;;3.48;53.12;100751.88;5031244;28;20071;-83
2022/03/30 02:43:16;;;;;;;11.70;2.47;;;;;;;3.36;53.29;100752.88;5035067;28;20064;-81
2022/03/30 02:45:42;;;;;;;8.13;2.20;;;;;;;3.36;53.92;100752.88;5045910;28;20502;-80
2022/03/30 02:48:19;;;;;;;9.32;2.33;;;;;;;3.28;54.16;100752.06;5030111;28;20044;-80
2022/03/30 02:50:53;;;;;;;6.18;1.30;;;;;;;3.21;54.61;100755.59;5028952;28;20581;-80
2022/03/30 02:53:19;;;;;;;2.97;0.52;;;;;;;3.25;54.77;100749.50;5047279;28;20045;-81
2022/03/30 02:55:45;;;;;;;0.98;0.30;;;;;;;3.08;55.32;100763.47;5029438;28;20033;-79
2022/03/30 02:58:11;;;;;;;0.43;0.10;;;;;;;2.97;55.28;100754.97;5046375;28;20052;-81
2022/03/30 03:00:39;;;;;;;0.60;0.03;;;;;;;2.89;55.27;100751.59;5029668;28;20033;-81
2022/03/30 03:03:05;;;;;;;0.50;0.10;;;;;;;2.74;55.38;100752.63;5046841;28;20029;-79
2022/03/30 03:05:33;;;;;;;0.20;0.00;;;;;;;2.88;55.11;100748.19;5044439;28;20029;-79
2022/03/30 03:08:00;;;;;;;0.20;0.10;;;;;;;2.81;55.16;100745.69;5028634;28;20099;-78
2022/03/30 03:10:26;;;;;;;0.10;0.00;;;;;;;2.87;55.12;100748.22;5030240;28;20048;-81
2022/03/30 03:12:52;;;;;;;0.00;0.00;;;;;;;2.84;55.54;100748.22;5039482;28;20053;-80
2022/03/30 03:15:18;;;;;;;0.05;0.00;;;;;;;2.86;55.29;100743.91;5048320;28;20075;-80
2022/03/30 03:17:43;;;;;;;0.00;0.00;;;;;;;2.87;54.90;100741.31;5044514;28;20045;-79
2022/03/30 03:20:11;;;;;;;0.35;0.00;;;;;;;2.91;55.30;100737.84;5029178;28;20457;-77
2022/03/30 03:22:37;;;;;;;0.20;0.00;;;;;;;2.80;55.23;100747.41;5050775;28;20045;-81
2022/03/30 03:25:03;;;;;;;0.52;0.00;;;;;;;2.93;55.13;100740.38;5045237;28;20028;-81
2022/03/30 03:27:29;;;;;;;0.73;0.00;;;;;;;3.01;55.15;100741.16;5029717;28;20041;-80
2022/03/30 03:29:55;;;;;;;0.15;0.00;;;;;;;3.08;55.06;100740.22;5028831;28;20044;-78
2022/03/30 03:32:20;;;;;;;0.20;0.00;;;;;;;2.80;55.48;100750.00;5027186;28;20388;-80
2022/03/30 03:34:46;;;;;;;0.00;0.00;;;;;;;3.07;54.92;100748.84;5028820;28;20057;-78
2022/03/30 03:37:11;;;;;;;0.38;0.00;;;;;;;3.18;54.83;100743.59;5027125;28;20052;-78
2022/03/30 03:39:37;;;;;;;0.00;0.00;;;;;;;3.14;54.84;100737.59;5027312;28;20067;-80
2022/03/30 03:42:03;;;;;;;0.32;0.00;;;;;;;3.11;54.83;100742.78;5045959;28;20037;-80
2022/03/30 03:44:28;;;;;;;0.10;0.00;;;;;;;3.18;54.71;100731.50;5063637;28;20029;-80
2022/03/30 03:46:54;;;;;;;0.30;0.00;;;;;;;3.00;55.30;100741.19;5048703;28;20028;-79
2022/03/30 03:49:20;;;;;;;1.85;0.00;;;;;;;3.05;54.48;100747.16;5048592;28;20033;-80
2022/03/30 03:51:46;;;;;;;0.90;0.10;;;;;;;2.80;55.62;100742.25;5028561;28;20132;-79
2022/03/30 03:54:11;;;;;;;0.65;0.00;;;;;;;2.90;55.25;100743.84;5031474;28;20123;-81
2022/03/30 03:56:37;;;;;;;0.00;0.00;;;;;;;2.66;55.52;100744.09;5047407;28;20049;-79
2022/03/30 03:59:04;;;;;;;0.08;0.00;;;;;;;2.81;55.54;100733.63;5027543;28;20044;-79
2022/03/30 04:01:30;;;;;;;0.10;0.00;;;;;;;2.77;55.92;100729.38;5027332;28;20728;-79
2022/03/30 04:03:56;;;;;;;0.10;0.10;;;;;;;2.91;54.99;100736.97;5045175;28;20148;-79
2022/03/30 04:06:22;;;;;;;0.03;0.00;;;;;;;2.94;55.10;100734.38;5046282;28;20171;-79
2022/03/30 04:08:48;;;;;;;0.32;0.00;;;;;;;2.45;56.05;100737.41;5026926;28;20518;-82
2022/03/30 04:11:14;;;;;;;0.13;0.00;;;;;;;2.61;55.63;100733.81;5031953;28;20035;-79
2022/03/30 04:13:40;;;;;;;0.47;0.00;;;;;;;2.62;54.70;100727.78;5031049;28;20041;-81
2022/03/30 04:16:06;;;;;;;0.38;0.00;;;;;;;2.59;55.33;100732.97;5043290;28;20028;-80
2022/03/30 04:18:31;;;;;;;0.22;0.00;;;;;;;2.71;54.87;100732.88;5042871;28;20522;-80
2022/03/30 04:20:57;;;;;;;0.00;0.00;;;;;;;2.73;54.08;100723.41;5046617;28;20116;-78
2022/03/30 04:23:22;;;;;;;0.00;0.00;;;;;;;2.72;54.35;100721.66;5031531;28;20052;-80
2022/03/30 04:25:48;;;;;;;0.52;0.00;;;;;;;2.64;54.66;100725.19;5049920;28;20040;-78
2022/03/30 04:28:17;;;;;;;0.32;0.00;;;;;;;2.77;54.62;100719.88;5032013;28;20051;-80
2022/03/30 04:30:43;;;;;;;1.17;0.00;;;;;;;2.84;54.35;100719.84;5047769;28;20032;-80
2022/03/30 04:33:09;;;;;;;0.20;0.00;;;;;;;2.86;53.96;100716.34;5024047;28;20055;-81
2022/03/30 04:35:36;;;;;;;0.30;0.00;;;;;;;2.77;53.86;100716.47;5045043;28;20398;-79
2022/03/30 04:38:02;;;;;;;0.47;0.10;;;;;;;2.65;54.58;100714.84;5018051;28;20044;-80
2022/03/30 04:40:28;;;;;;;0.50;0.20;;;;;;;2.78;53.91;100718.19;5040167;28;20032;-80
2022/03/30 04:42:55;;;;;;;2.08;0.10;;;;;;;2.80;53.82;100715.56;5031550;28;20037;-78
2022/03/30 04:45:21;;;;;;;0.93;0.35;;;;;;;2.62;54.63;100717.44;5010997;28;20040;-80
2022/03/30 04:47:47;;;;;;;1.38;0.35;;;;;;;2.73;54.25;100713.06;5008223;28;20107;-79
2022/03/30 04:50:13;;;;;;;0.63;0.10;;;;;;;2.72;54.20;100719.09;5027887;28;20104;-82
2022/03/30 04:52:40;;;;;;;1.60;0.00;;;;;;;2.55;54.13;100716.69;5048662;28;20141;-78
2022/03/30 04:55:07;;;;;;;0.25;0.03;;;;;;;2.58;54.41;100715.78;5027082;28;20402;-81
2022/03/30 04:57:33;;;;;;;0.88;0.45;;;;;;;2.67;54.54;100718.28;5040252;28;20075;-78
2022/03/30 04:59:58;;;;;;;0.85;0.10;;;;;;;2.70;54.21;100718.25;5027612;28;20479;-80
2022/03/30 05:02:26;;;;;;;0.70;0.22;;;;;;;2.75;54.60;100718.19;5032174;28;20044;-79
2022/03/30 05:04:52;;;;;;;0.82;0.10;;;;;;;2.53;55.00;100714.97;5012561;28;20037;-79
2022/03/30 05:07:17;;;;;;;2.22;0.28;;;;;;;2.74;54.29;100712.19;5048133;28;20123;-81
2022/03/30 05:09:43;;;;;;;3.63;1.25;;;;;;;2.65;54.46;100717.44;5049213;28;20037;-82
2022/03/30 05:12:09;;;;;;;0.75;0.25;;;;;;;2.65;54.57;100714.84;5044944;28;20146;-82
2022/03/30 05:14:34;;;;;;;0.65;0.10;;;;;;;2.59;54.61;100719.22;5031035;28;20039;-80
2022/03/30 05:17:01;;;;;;;1.10;0.10;;;;;;;2.46;55.32;100710.72;5043593;28;20739;-78
2022/03/30 05:19:27;;;;;;;0.65;0.10;;;;;;;2.39;55.14;100717.66;5048159;28;20115;-78
2022/03/30 05:21:52;;;;;;;0.55;0.10;;;;;;;2.41;55.29;100718.50;5032814;28;20041;-82
2022/03/30 05:24:18;;;;;;;0.90;0.10;;;;;;;2.36;55.46;100707.38;5034516;28;20037;-80
2022/03/30 05:26:43;;;;;;;0.63;0.05;;;;;;;2.43;55.27;100705.63;5034136;28;20033;-81
2022/03/30 05:29:09;;;;;;;1.70;0.10;;;;;;;2.50;55.34;100702.09;5032890;28;20134;-80
2022/03/30 05:31:35;;;;;;;0.60;0.10;;;;;;;2.46;55.35;100703.84;5032157;28;20596;-80
2022/03/30 05:34:00;;;;;;;0.70;0.25;;;;;;;2.51;55.24;100704.69;5036431;28;20388;-81
2022/03/30 05:36:26;;;;;;;0.68;0.10;;;;;;;2.59;55.27;100709.75;5048704;28;20124;-79
2022/03/30 05:38:51;;;;;;;3.90;0.13;;;;;;;2.38;55.75;100710.81;5047780;28;20037;-81
2022/03/30 05:41:18;;;;;;;0.73;0.10;;;;;;;2.45;56.20;100716.78;5017447;28;20514;-79
2022/03/30 05:43:44;;;;;;;0.60;0.10;;;;;;;2.56;55.96;100712.38;5045466;28;20037;-80
2022/03/30 05:46:09;;;;;;;0.90;0.17;;;;;;;2.64;55.30;100715.72;5029733;28;20028;-79
2022/03/30 05:48:36;;;;;;;0.38;0.20;;;;;;;2.84;54.77;100719.84;5029820;28;20059;-78
2022/03/30 05:51:01;;;;;;;0.30;0.10;;;;;;;2.80;55.22;100718.16;5030762;28;20370;-79
2022/03/30 05:53:27;;;;;;;1.73;0.50;;;;;;;2.69;55.52;100713.09;5028674;28;20108;-81
2022/03/30 05:55:52;;;;;;;5.18;0.20;;;;;;;2.59;55.62;100714.06;5047429;28;20021;-80
2022/03/30 05:58:18;;;;;;;7.68;0.20;;;;;;;2.75;54.88;100724.22;5035914;28;20303;-81
2022/03/30 06:00:45;;;;;;;1.67;0.10;;;;;;;2.82;54.69;100711.25;5050411;28;20043;-78
2022/03/30 06:03:10;;;;;;;1.67;0.20;;;;;;;2.22;55.83;100715.25;5066555;28;20025;-78
2022/03/30 06:05:37;;;;;;;5.18;0.32;;;;;;;2.66;54.79;100718.28;5058359;28;20518;-79
2022/03/30 06:08:03;;;;;;;0.50;0.10;;;;;;;2.47;54.14;100708.16;5047429;28;20080;-79
2022/03/30 06:10:29;;;;;;;1.10;0.20;;;;;;;2.36;54.46;100725.44;5032274;28;20032;-82
2022/03/30 06:12:56;;;;;;;0.98;0.22;;;;;;;2.24;54.34;100717.78;5029490;28;20051;-81
2022/03/30 06:15:22;;;;;;;4.68;0.17;;;;;;;2.08;55.46;100719.63;5036143;28;20021;-80
2022/03/30 06:17:49;;;;;;;0.70;0.08;;;;;;;2.02;54.98;100719.66;5031978;28;20040;-78
2022/03/30 06:20:15;;;;;;;2.03;0.10;;;;;;;2.18;54.67;100723.88;5034545;28;20029;-78
2022/03/30 06:22:41;;;;;;;3.60;0.15;;;;;;;2.49;54.03;100710.72;5028857;28;20155;-76
2022/03/30 06:25:09;;;;;;;0.65;0.10;;;;;;;2.41;53.80;100713.34;5047169;28;20028;-80
2022/03/30 06:27:35;;;;;;;2.80;0.35;;;;;;;2.51;52.71;100714.13;5028033;28;20048;-79
2022/03/30 06:30:02;;;;;;;1.55;0.40;;;;;;;2.45;53.57;100719.34;5024391;28;20048;-81
2022/03/30 06:32:27;;;;;;;2.63;0.25;;;;;;;2.63;53.04;100715.75;5014229;28;20068;-79
2022/03/30 06:34:53;;;;;;;2.10;0.20;;;;;;;2.75;53.01;100724.22;5024523;28;20063;-81
2022/03/30 06:37:19;;;;;;;1.42;0.20;;;;;;;2.90;52.59;100718.03;5027021;28;20430;-83
2022/03/30 06:39:44;;;;;;;1.70;0.82;;;;;;;2.97;52.41;100716.25;5051510;28;20033;-82
2022/03/30 06:42:10;;;;;;;1.83;0.10;;;;;;;2.82;52.05;100716.41;5043930;28;20044;-77
2022/03/30 06:44:35;;;;;;;1.42;0.20;;;;;;;2.74;51.93;100717.34;5044412;28;20036;-80
2022/03/30 06:47:02;;;;;;;0.68;0.20;;;;;;;2.74;52.16;100711.34;5027612;28;20125;-80
2022/03/30 06:49:27;;;;;;;0.25;0.03;;;;;;;2.83;51.55;100707.81;5027116;28;20029;-77
2022/03/30 06:51:53;;;;;;;4.60;0.30;;;;;;;2.69;51.83;100707.94;5041892;28;20059;-80
2022/03/30 06:54:19;;;;;;;3.63;0.10;;;;;;;2.81;51.34;100710.41;5010059;28;20489;-80
2022/03/30 06:56:45;;;;;;;0.98;0.13;;;;;;;2.96;50.71;100717.13;5011643;28;20088;-80
2022/03/30 06:59:13;;;;;;;3.75;0.20;;;;;;;2.93;51.06;100719.72;5043870;28;20119;-82
2022/03/30 07:01:38;;;;;;;3.65;0.77;;;;;;;2.97;50.79;100718.84;5043631;28;20382;-80
2022/03/30 07:04:04;;;;;;;0.52;0.10;;;;;;;2.92;50.27;100715.44;5030972;28;20373;-80
2022/03/30 07:06:30;;;;;;;3.20;0.30;;;;;;;2.89;50.44;100720.63;5043930;28;20039;-80
2022/03/30 07:11:40;;;;;;;0.50;0.13;;;;;;;2.91;50.97;100712.03;5046331;28;20070;-78
2022/03/30 07:14:06;;;;;;;1.35;0.22;;;;;;;2.82;50.70;100703.50;5027341;28;20080;-79
2022/03/30 07:16:31;;;;;;;3.83;0.10;;;;;;;3.06;50.90;100702.38;5009000;28;20028;-78
2022/03/30 07:18:57;;;;;;;0.68;0.20;;;;;;;3.32;50.85;100702.13;5043193;28;20132;-80
2022/03/30 07:21:23;;;;;;;2.92;0.10;;;;;;;3.44;50.19;100704.53;5045799;28;20029;-79
2022/03/30 07:23:48;;;;;;;4.95;0.10;;;;;;;3.54;49.52;100700.09;5043067;28;20143;-82
2022/03/30 07:26:24;;;;;;;0.10;0.00;;;;;;;3.57;49.42;100707.81;5044035;28;20036;-82
2022/03/30 07:28:50;;;;;;;2.03;0.10;;;;;;;3.22;49.21;100703.06;5022349;28;20099;-79
2022/03/30 07:31:16;;;;;;;2.80;0.20;;;;;;;3.22;49.46;100705.63;5042972;28;20091;-78
2022/03/30 07:33:41;;;;;;;0.75;0.20;;;;;;;3.06;50.31;100710.97;5027143;28;20072;-78
2022/03/30 07:36:07;;;;;;;1.88;0.10;;;;;;;3.15;50.89;100702.28;5047088;28;20065;-78
2022/03/30 07:38:33;;;;;;;0.17;0.00;;;;;;;3.19;50.31;100706.53;5044860;28;20099;-83
2022/03/30 07:41:00;;;;;;;1.67;0.20;;;;;;;3.00;51.84;100712.78;5008586;28;21150;-78
2022/03/30 07:43:27;;;;;;;3.10;0.10;;;;;;;3.31;51.29;100706.41;5027761;28;20041;-81
2022/03/30 07:45:54;;;;;;;1.10;0.10;;;;;;;3.05;50.71;100700.69;5026237;28;20067;-82
2022/03/30 07:48:19;;;;;;;4.30;0.10;;;;;;;3.15;50.19;100708.28;5025899;28;20044;-79
2022/03/30 07:50:45;;;;;;;2.42;0.10;;;;;;;2.94;50.33;100714.56;5042390;28;20736;-83
2022/03/30 07:53:11;;;;;;;0.75;0.10;;;;;;;3.23;50.62;100708.22;5025003;28;20041;-79
2022/03/30 07:55:39;;;;;;;0.20;0.03;;;;;;;3.10;50.50;100702.34;5008887;28;20072;-78
2022/03/30 07:58:05;;;;;;;5.57;0.20;;;;;;;3.19;50.39;100698.78;5026892;28;20036;-82
2022/03/30 08:00:31;;;;;;;0.30;0.10;;;;;;;3.47;50.43;100699.34;5029164;28;20035;-76
2022/03/30 08:02:58;;;;;;;0.77;0.00;;;;;;;3.34;49.83;100695.19;5024907;28;20055;-80
2022/03/30 08:05:24;;;;;;;0.22;0.03;;;;;;;3.35;49.45;100700.31;5013226;28;20031;-79
2022/03/30 08:07:50;;;;;;;0.45;0.17;;;;;;;3.47;49.77;100709.66;5039434;28;20044;-82
2022/03/30 08:10:17;;;;;;;2.13;0.00;;;;;;;3.85;48.75;100708.28;5042117;28;20025;-78
2022/03/30 08:12:44;;;;;;;2.38;0.30;;;;;;;3.78;48.93;100704.06;5062959;28;20041;-77
2022/03/30 08:15:12;;;;;;;1.45;0.10;;;;;;;3.67;48.80;100696.47;5054145;28;20044;-80
2022/03/30 08:17:38;;;;;;;4.65;0.10;;;;;;;4.05;47.66;100699.34;5030369;28;20052;-75
2022/03/30 08:20:04;;;;;;;1.77;0.10;;;;;;;3.99;47.09;100693.41;5039964;28;20546;-81
2022/03/30 08:22:30;;;;;;;1.67;0.13;;;;;;;4.09;47.42;100694.09;5007647;28;20530;-81
2022/03/30 08:25:06;;;;;;;4.25;0.55;;;;;;;4.49;46.70;100702.94;5006480;28;20028;-80
2022/03/30 08:27:33;;;;;;;1.33;0.05;;;;;;;4.78;46.31;100694.66;5024890;28;20045;-84
2022/03/30 08:29:59;;;;;;;3.95;0.10;;;;;;;5.21;44.46;100684.34;5039689;28;20074;-80
2022/03/30 08:32:34;;;;;;;4.38;0.55;;;;;;;5.27;44.41;100691.13;5041956;28;20040;-81
2022/03/30 08:34:59;;;;;;;3.22;0.20;;;;;;;4.90;45.22;100698.78;5023041;28;20032;-84
2022/03/30 08:37:25;;;;;;;0.70;0.10;;;;;;;4.83;44.71;100700.59;5024560;28;20162;-81
2022/03/30 08:39:53;;;;;;;2.08;0.20;;;;;;;4.58;45.72;100700.19;5046587;28;20059;-82
2022/03/30 08:42:19;;;;;;;0.55;0.00;;;;;;;4.55;45.74;100698.53;5001175;28;20056;-81
2022/03/30 08:44:51;;;;;;;1.67;0.00;;;;;;;4.69;45.99;100695.69;5045621;28;20036;-84
2022/03/30 08:47:17;;;;;;;0.98;0.00;;;;;;;4.74;45.05;100699.03;5026426;28;20041;-80
2022/03/30 08:49:47;;;;;;;0.17;0.00;;;;;;;4.81;46.10;100700.66;5008052;28;20516;-78
2022/03/30 08:52:13;;;;;;;1.60;1.00;;;;;;;5.08;46.92;100698.44;5039456;28;20467;-84
2022/03/30 08:54:43;;;;;;;1.42;0.10;;;;;;;5.21;45.99;100705.09;5043674;28;20640;-83
2022/03/30 08:57:09;;;;;;;0.38;0.10;;;;;;;5.11;45.35;100700.97;5040046;28;20053;-82
2022/03/30 08:59:35;;;;;;;0.70;0.20;;;;;;;4.84;43.80;100705.75;5024058;28;20098;-81
2022/03/30 09:02:00;;;;;;;0.63;0.10;;;;;;;4.71;44.90;100708.59;5040659;28;20087;-80
2022/03/30 09:04:26;;;;;;;0.60;0.08;;;;;;;4.88;44.58;100711.78;5028820;28;20481;-80
2022/03/30 09:06:54;;;;;;;0.75;0.13;;;;;;;5.09;43.64;100705.31;5039611;28;20070;-78
2022/03/30 09:09:35;;;;;;;4.85;0.10;;;;;;;5.16;43.74;100703.44;5040737;28;20115;-79
2022/03/30 09:12:07;;;;;;;1.77;0.08;;;;;;;4.73;44.24;100710.28;5017993;28;20325;-80
2022/03/30 09:14:34;;;;;;;1.50;0.10;;;;;;;4.48;44.85;100714.19;5040063;28;20648;-80
2022/03/30 09:17:02;;;;;;;1.60;0.10;;;;;;;4.87;43.21;100714.34;5021333;28;20044;-80
2022/03/30 09:19:29;;;;;;;2.33;0.10;;;;;;;4.90;43.09;100711.72;5022968;28;20123;-80
2022/03/30 09:21:59;;;;;;;5.57;0.20;;;;;;;4.76;43.79;100720.56;5020639;28;20028;-79
2022/03/30 09:24:30;;;;;;;2.85;0.45;;;;;;;4.87;43.48;100717.78;5023753;28;20032;-78
2022/03/30 09:26:56;;;;;;;1.58;0.15;;;;;;;5.16;44.28;100711.22;5037797;28;20033;-76
2022/03/30 09:29:25;;;;;;;2.90;0.20;;;;;;;5.61;43.98;100708.56;5041375;28;20037;-81
2022/03/30 09:31:51;;;;;;;3.00;0.10;;;;;;;5.82;43.02;100713.28;5023953;28;20059;-79
2022/03/30 09:34:19;;;;;;;0.50;0.00;;;;;;;5.86;41.62;100706.28;5040889;28;20028;-81
2022/03/30 09:36:45;;;;;;;1.65;0.15;;;;;;;5.78;41.06;100706.44;5007419;28;20419;-82
2022/03/30 09:39:32;;;;;;;3.60;0.15;;;;;;;5.76;41.10;100712.56;5045469;28;20636;-81
2022/03/30 09:41:59;;;;;;;1.35;0.10;;;;;;;5.31;41.57;100703.16;5029913;28;20033;-78
2022/03/30 09:44:27;;;;;;;1.75;0.40;;;;;;;5.43;41.83;100705.47;5024977;28;20024;-81
2022/03/30 09:47:05;;;;;;;0.80;0.17;;;;;;;5.44;41.81;100703.75;5021557;28;20028;-81
2022/03/30 09:49:47;;;;;;;0.93;0.20;;;;;;;5.45;41.95;100702.84;5042694;28;20491;-76
2022/03/30 09:52:24;;;;;;;6.30;0.80;;;;;;;5.46;42.46;100695.03;5007067;28;20061;-78
2022/03/30 09:55:11;;;;;;;1.52;0.30;;;;;;;5.42;42.19;100700.34;5042118;28;20043;-80
2022/03/30 09:57:36;;;;;;;0.93;0.30;;;;;;;5.66;41.80;100697.22;5038279;28;20045;-80
2022/03/30 10:00:14;;;;;;;4.60;0.17;;;;;;;4.91;41.35;100695.31;5037224;28;20043;-81
2022/03/30 10:02:48;;;;;;;2.83;0.10;;;;;;;4.76;42.53;100702.44;5038625;28;20057;-80
2022/03/30 10:05:16;;;;;;;0.88;0.20;;;;;;;5.20;42.47;100692.16;5004799;28;20036;-82
2022/03/30 10:07:42;;;;;;;3.85;0.10;;;;;;;5.48;40.97;100686.38;5032324;28;20511;-82
2022/03/30 10:10:10;;;;;;;0.20;0.20;;;;;;;5.61;39.45;100683.50;5051124;28;20040;-80
2022/03/30 10:12:37;;;;;;;0.43;0.00;;;;;;;6.51;39.42;100684.81;5013307;28;20092;-81
2022/03/30 10:15:03;;;;;;;0.82;0.10;;;;;;;6.76;37.06;100677.22;5030991;28;20020;-80
2022/03/30 10:17:29;;;;;;;2.13;0.20;;;;;;;7.27;36.42;100673.22;5027091;28;20051;-79
2022/03/30 10:19:58;;;;;;;0.75;0.30;;;;;;;7.65;35.82;100677.28;5027800;28;20033;-79
2022/03/30 10:23:00;;;;;;;2.85;0.40;;;;;;;7.67;38.15;100678.09;5050826;28;20083;-82
2022/03/30 10:25:48;;;;;;;15.38;4.82;;;;;;;7.97;36.85;100677.16;5036063;28;20479;-79
2022/03/30 10:28:30;;;;;;;1.58;0.68;;;;;;;8.08;37.77;100677.66;5029982;28;20041;-80
2022/03/30 10:30:57;;;;;;;2.10;0.10;;;;;;;8.91;35.74;100680.06;5032437;28;20128;-80
2022/03/30 10:33:36;;;;;;;0.82;0.10;;;;;;;8.98;35.80;100682.41;5032880;28;20053;-81
2022/03/30 10:36:32;;;;;;;0.52;0.03;;;;;;;9.44;33.91;100673.75;5028584;28;20418;-78
2022/03/30 10:39:17;;;;;;;2.00;0.10;;;;;;;9.36;33.01;100672.28;5020976;28;20057;-81
2022/03/30 10:41:53;;;;;;;0.80;0.10;;;;;;;9.50;33.43;100663.06;5024913;28;20028;-79
2022/03/30 10:44:37;;;;;;;0.65;0.10;;;;;;;9.72;32.57;100663.94;5024557;28;20045;-79
2022/03/30 10:47:20;;;;;;;0.63;0.05;;;;;;;9.49;33.63;100661.38;5047445;28;20040;-81
2022/03/30 10:49:52;;;;;;;1.67;0.28;;;;;;;9.59;33.43;100663.56;5009643;28;20041;-78
2022/03/30 10:52:24;;;;;;;2.13;0.20;;;;;;;9.53;33.12;100655.13;5026708;28;20124;-79
2022/03/30 10:54:55;;;;;;;0.32;0.10;;;;;;;9.22;33.50;100648.50;5025231;28;20124;-77
2022/03/30 10:57:43;;;;;;;1.13;0.10;;;;;;;9.89;34.61;100654.63;5042188;28;20037;-80
2022/03/30 11:00:17;;;;;;;3.05;1.75;;;;;;;9.44;33.95;100645.06;5044877;28;20091;-80
2022/03/30 11:02:43;;;;;;;3.53;0.25;;;;;;;9.78;32.51;100645.41;5040513;28;20110;-79
2022/03/30 11:05:13;;;;;;;1.33;0.28;;;;;;;9.39;34.01;100656.53;5043133;28;20486;-80
2022/03/30 11:07:39;;;;;;;1.45;0.10;;;;;;;8.08;36.71;100664.66;5040792;28;20155;-79
2022/03/30 11:10:21;;;;;;;1.17;0.13;;;;;;;7.14;38.96;100666.66;5026784;28;20127;-79
2022/03/30 11:12:56;;;;;;;1.65;0.10;;;;;;;6.05;40.31;100668.63;5023724;28;20052;-79
2022/03/30 11:15:22;;;;;;;1.10;0.10;;;;;;;5.32;41.99;100676.31;5023086;28;20055;-79
2022/03/30 11:17:48;;;;;;;0.85;0.10;;;;;;;4.32;43.90;100686.00;5024673;28;20450;-79
2022/03/30 11:20:19;;;;;;;2.60;0.10;;;;;;;3.82;45.79;100687.63;5043089;28;20088;-80
2022/03/30 11:22:46;;;;;;;0.30;0.10;;;;;;;3.67;46.05;100682.69;5022204;28;20037;-80
2022/03/30 11:25:22;;;;;;;1.75;0.20;;;;;;;3.29;47.29;100684.94;5041120;28;20115;-76
2022/03/30 11:27:57;;;;;;;0.70;0.17;;;;;;;3.75;46.25;100680.84;5041068;28;20052;-79
2022/03/30 11:30:24;;;;;;;6.63;0.52;;;;;;;3.04;48.12;100671.41;5008303;28;20040;-81
2022/03/30 11:32:49;;;;;;;2.85;0.30;;;;;;;3.36;47.56;100672.78;5023022;28;20453;-79
2022/03/30 11:35:19;;;;;;;1.33;0.10;;;;;;;3.43;47.92;100671.81;5041865;28;20040;-78
2022/03/30 11:37:58;;;;;;;4.05;0.88;;;;;;;3.56;47.16;100678.53;5038587;28;20085;-78
2022/03/30 11:40:25;;;;;;;1.10;0.15;;;;;;;3.58;46.96;100675.91;5024332;28;20377;-78